Time;durP1;ratioP1;P1;durP2;ratioP2;P2;SDS_P1;SDS_P2;PMS_P1;PMS_P2;Temp;Humidity;BMP_temperature;BMP_pressure;BME280_temperature;BME280_humidity;BME280_pressure;Samples;Min_cycle;Max_cycle;Signal;HPM_P1;HPM_P2
2020/12/23 00:00:43;;;;;;;;;;;9.90;99.90;;;;;;5065160;28;20910;-61
2020/12/23 00:03:09;;;;;;;11.15;6.90;;;10.00;99.90;;;;;;5079924;28;19956;-61
2020/12/23 00:05:34;;;;;;;;;;;10.10;99.90;;;;;;5064293;28;20044;-61
2020/12/23 00:08:00;;;;;;;6.90;3.45;;;10.00;99.90;;;;;;5060611;28;19916;-62
2020/12/23 00:10:25;;;;;;;;;;;10.00;99.90;;;;;;5061512;28;20053;-61
2020/12/23 00:12:51;;;;;;;2.80;1.60;;;9.90;99.90;;;;;;5061100;28;19926;-61
2020/12/23 00:15:16;;;;;;;;;;;9.90;99.90;;;;;;5045050;28;20533;-62
2020/12/23 00:17:42;;;;;;;5.13;1.23;;;9.90;99.90;;;;;;5047804;28;19999;-61
2020/12/23 00:20:08;;;;;;;;;;;10.00;99.90;;;;;;5049042;28;20036;-63
2020/12/23 00:22:33;;;;;;;3.03;1.10;;;9.90;99.90;;;;;;5048397;28;20315;-61
2020/12/23 00:24:59;;;;;;;;;;;9.90;99.90;;;;;;5047996;28;20033;-64
2020/12/23 00:27:24;;;;;;;4.22;0.98;;;9.90;99.90;;;;;;5047298;28;20357;-64
2020/12/23 00:29:50;;;;;;;;;;;9.90;99.90;;;;;;5048532;28;20037;-64
2020/12/23 00:32:19;;;;;;;3.70;1.15;;;9.90;99.90;;;;;;5064734;28;19924;-64
2020/12/23 00:34:45;;;;;;;2.03;1.25;;;9.90;99.90;;;;;;5068038;28;20032;-63
2020/12/23 00:37:11;;;;;;;1.88;1.65;;;9.90;99.90;;;;;;5067830;28;20577;-64
2020/12/23 00:39:37;;;;;;;;;;;9.90;99.90;;;;;;5068086;28;20110;-62
2020/12/23 00:42:03;;;;;;;3.67;1.63;;;9.90;99.90;;;;;;5067415;28;20010;-62
2020/12/23 00:44:29;;;;;;;4.80;1.70;;;9.80;99.90;;;;;;5067632;28;20174;-61
2020/12/23 00:46:55;;;;;;;;;;;9.80;99.90;;;;;;5066774;28;20516;-61
2020/12/23 00:49:20;;;;;;;3.75;1.13;;;9.80;99.90;;;;;;5068235;28;19987;-60
2020/12/23 00:51:48;;;;;;;;;;;9.80;99.90;;;;;;5068306;28;20076;-63
2020/12/23 00:54:13;;;;;;;1.92;1.15;;;9.80;99.90;;;;;;5067727;28;19916;-62
2020/12/23 00:56:39;;;;;;;;;;;9.70;99.90;;;;;;5067817;28;20441;-64
2020/12/23 00:59:04;;;;;;;2.17;0.95;;;9.80;99.90;;;;;;5067388;28;19920;-63
2020/12/23 01:01:30;;;;;;;;;;;9.70;99.90;;;;;;5037667;28;20541;-62
2020/12/23 01:03:55;;;;;;;5.32;1.20;;;9.80;99.90;;;;;;5026880;28;19927;-61
2020/12/23 01:06:21;;;;;;;;;;;9.80;99.90;;;;;;5035709;28;20045;-62
2020/12/23 01:08:47;;;;;;;2.70;1.17;;;9.70;99.90;;;;;;5047488;28;19926;-62
2020/12/23 01:11:12;;;;;;;;;;;9.70;99.90;;;;;;5047414;28;20767;-63
2020/12/23 01:13:38;;;;;;;2.28;1.10;;;9.70;99.90;;;;;;5046534;28;19916;-62
2020/12/23 01:16:04;;;;;;;;;;;9.70;99.90;;;;;;5046024;28;20053;-62
2020/12/23 01:18:30;;;;;;;4.18;1.15;;;9.70;99.90;;;;;;5047303;28;20469;-62
2020/12/23 01:20:55;;;;;;;;;;;9.70;99.90;;;;;;5047073;28;20123;-63
2020/12/23 01:23:21;;;;;;;2.25;1.20;;;9.70;99.90;;;;;;5047092;28;19925;-62
2020/12/23 01:25:55;;;;;;;1.80;1.02;;;9.70;99.90;;;;;;5044709;28;20064;-61
2020/12/23 01:28:21;;;;;;;1.90;1.20;;;9.70;99.90;;;;;;5046273;28;20045;-60
2020/12/23 01:30:47;;;;;;;3.05;1.15;;;9.70;99.90;;;;;;5051341;28;20033;-62
2020/12/23 01:33:13;;;;;;;;;;;9.70;99.90;;;;;;5067373;28;20047;-63
2020/12/23 01:35:39;;;;;;;3.03;1.40;;;9.70;99.90;;;;;;5066800;28;19964;-62
2020/12/23 01:38:04;;;;;;;;;;;9.80;99.90;;;;;;5066875;28;20047;-62
2020/12/23 01:40:31;;;;;;;5.28;1.15;;;9.70;99.90;;;;;;5065979;28;19916;-63
2020/12/23 01:42:56;;;;;;;3.75;1.17;;;9.70;99.90;;;;;;5067494;28;20101;-60
2020/12/23 01:45:22;;;;;;;;;;;9.80;99.90;;;;;;5063180;28;20040;-63
2020/12/23 01:47:48;;;;;;;4.07;1.40;;;9.80;99.90;;;;;;5066792;28;19916;-62
2020/12/23 01:50:14;;;;;;;4.68;1.17;;;9.80;99.90;;;;;;5065340;28;20036;-62
2020/12/23 01:52:40;;;;;;;5.88;1.45;;;9.80;99.90;;;;;;5066960;28;20072;-63
2020/12/23 01:55:09;;;;;;;3.80;1.20;;;9.80;99.90;;;;;;5064837;28;20123;-63
2020/12/23 01:57:35;;;;;;;4.47;1.45;;;9.80;99.90;;;;;;5065318;28;20044;-62
2020/12/23 02:00:04;;;;;;;2.35;1.10;;;9.80;99.90;;;;;;5065719;28;20531;-62
2020/12/23 02:02:31;;;;;;;2.15;1.30;;;9.80;99.90;;;;;;5064624;28;20048;-60
2020/12/23 02:05:01;;;;;;;7.15;1.20;;;9.80;99.90;;;;;;5061659;28;20332;-62
2020/12/23 02:07:29;;;;;;;3.40;1.67;;;9.90;99.90;;;;;;5062794;28;20072;-61
2020/12/23 02:09:57;;;;;;;3.03;1.65;;;9.90;99.90;;;;;;5046714;28;20168;-62
2020/12/23 02:12:23;;;;;;;3.63;1.67;;;9.90;99.90;;;;;;5053419;28;20045;-62
2020/12/23 02:14:49;;;;;;;3.88;2.10;;;9.90;99.90;;;;;;5066781;28;20043;-62
2020/12/23 02:17:16;;;;;;;6.00;1.90;;;9.90;99.90;;;;;;5052517;28;20037;-62
2020/12/23 02:19:51;;;;;;;5.72;2.00;;;9.80;99.90;;;;;;5046145;28;20037;-61
2020/12/23 02:22:21;;;;;;;3.45;1.60;;;9.80;99.90;;;;;;5046108;28;20036;-62
2020/12/23 02:24:50;;;;;;;3.38;1.50;;;9.80;99.90;;;;;;5046535;28;20053;-62
2020/12/23 02:27:17;;;;;;;4.65;1.70;;;9.80;99.90;;;;;;5041087;28;20033;-62
2020/12/23 02:29:48;;;;;;;9.25;1.60;;;9.80;99.90;;;;;;5026158;28;20057;-62
2020/12/23 02:32:14;;;;;;;8.98;1.77;;;9.80;99.90;;;;;;5025224;28;20239;-62
2020/12/23 02:34:40;;;;;;;;;;;9.80;99.90;;;;;;5026543;28;20723;-62
2020/12/23 02:37:07;;;;;;;39.50;3.33;;;9.80;99.90;;;;;;5035868;28;20300;-62
2020/12/23 02:39:33;;;;;;;6.75;2.13;;;9.70;99.90;;;;;;5051597;28;20044;-63
2020/12/23 02:42:00;;;;;;;6.25;3.00;;;9.70;99.90;;;;;;5042225;28;20082;-62
2020/12/23 02:44:26;;;;;;;9.90;2.70;;;9.70;99.90;;;;;;5037272;28;20110;-62
2020/12/23 02:46:56;;;;;;;;;;;9.70;99.90;;;;;;5058746;28;20712;-62
2020/12/23 02:49:22;;;;;;;125.70;6.85;;;9.70;99.90;;;;;;5065797;28;19924;-62
2020/12/23 02:51:48;;;;;;;;;;;9.60;99.90;;;;;;5065874;28;20085;-61
2020/12/23 02:54:13;;;;;;;32.45;2.45;;;9.60;99.90;;;;;;5065759;28;19967;-62
2020/12/23 02:56:39;;;;;;;;;;;9.60;99.90;;;;;;5053163;28;20069;-62
2020/12/23 02:59:04;;;;;;;4.53;2.00;;;9.60;99.90;;;;;;5046923;28;19920;-62
2020/12/23 03:01:30;;;;;;;;;;;9.60;99.90;;;;;;5044977;28;20036;-62
2020/12/23 03:03:55;;;;;;;2.58;1.95;;;9.60;99.90;;;;;;5054637;28;20251;-62
2020/12/23 03:06:21;;;;;;;;;;;9.60;99.90;;;;;;5065952;28;20068;-62
2020/12/23 03:08:47;;;;;;;3.45;1.90;;;9.70;99.90;;;;;;5065094;28;19920;-63
2020/12/23 03:11:12;;;;;;;;;;;9.60;99.90;;;;;;5065629;28;20133;-62
2020/12/23 03:13:38;;;;;;;2.70;1.70;;;9.70;99.90;;;;;;5066052;28;19916;-62
2020/12/23 03:16:03;;;;;;;;;;;9.70;99.90;;;;;;5064747;28;20072;-62
2020/12/23 03:18:29;;;;;;;2.75;2.20;;;9.70;99.90;;;;;;5064537;28;19967;-64
2020/12/23 03:20:55;;;;;;;;;;;9.80;99.90;;;;;;5065351;28;20041;-61
2020/12/23 03:23:20;;;;;;;2.40;1.83;;;9.70;99.90;;;;;;5053855;28;20439;-61
2020/12/23 03:25:46;;;;;;;;;;;9.80;99.90;;;;;;5046192;28;20509;-63
2020/12/23 03:28:11;;;;;;;2.65;1.75;;;9.80;99.90;;;;;;5045417;28;20020;-62
2020/12/23 03:30:37;;;;;;;;;;;9.80;99.90;;;;;;5040474;28;20052;-61
2020/12/23 03:33:02;;;;;;;3.97;2.00;;;9.70;99.90;;;;;;5025598;28;19956;-60
2020/12/23 03:35:28;;;;;;;;;;;9.70;99.90;;;;;;5025730;28;20046;-62
2020/12/23 03:37:54;;;;;;;3.03;1.58;;;9.70;99.90;;;;;;5037097;28;19936;-61
2020/12/23 03:40:19;;;;;;;;;;;9.70;99.90;;;;;;5044648;28;20493;-62
2020/12/23 03:42:45;;;;;;;2.08;1.50;;;9.80;99.90;;;;;;5045401;28;19956;-60
2020/12/23 03:45:10;;;;;;;;;;;9.80;99.90;;;;;;5044836;28;20157;-62
2020/12/23 03:47:36;;;;;;;2.08;1.50;;;9.80;99.90;;;;;;5044769;28;19924;-61
2020/12/23 03:50:02;;;;;;;;;;;9.80;99.90;;;;;;5046528;28;20515;-62
2020/12/23 03:52:27;;;;;;;2.80;1.90;;;9.80;99.90;;;;;;5049276;28;19921;-62
2020/12/23 03:54:53;;;;;;;;;;;9.80;99.90;;;;;;5049580;28;20045;-61
2020/12/23 03:57:18;;;;;;;1.90;1.02;;;9.80;99.90;;;;;;5049000;28;19943;-61
2020/12/23 03:59:44;;;;;;;;;;;9.80;99.90;;;;;;5049585;28;20524;-64
2020/12/23 04:02:09;;;;;;;2.22;1.05;;;9.90;99.90;;;;;;5064283;28;19913;-61
2020/12/23 04:04:35;;;;;;;;;;;9.80;99.90;;;;;;5072186;28;20587;-62
2020/12/23 04:07:00;;;;;;;6.97;1.17;;;9.80;99.90;;;;;;5069117;28;20440;-61
2020/12/23 04:09:26;;;;;;;;;;;9.80;99.90;;;;;;5068122;28;20585;-62
2020/12/23 04:11:52;;;;;;;2.10;1.20;;;9.70;99.90;;;;;;5067450;28;19916;-62
2020/12/23 04:14:17;;;;;;;;;;;9.70;99.90;;;;;;5058437;28;20041;-64
2020/12/23 04:16:43;;;;;;;2.70;0.80;;;9.80;99.90;;;;;;5066868;28;19939;-62
2020/12/23 04:19:08;;;;;;;;;;;9.80;99.90;;;;;;5068336;28;20043;-62
2020/12/23 04:21:34;;;;;;;5.38;0.95;;;9.80;99.90;;;;;;5083541;28;19960;-62
2020/12/23 04:23:59;;;;;;;;;;;9.80;99.90;;;;;;5068529;28;20048;-62
2020/12/23 04:26:25;;;;;;;2.60;0.88;;;9.80;99.90;;;;;;5068558;28;19992;-62
2020/12/23 04:28:50;;;;;;;;;;;9.80;99.90;;;;;;5067448;28;20202;-62
2020/12/23 04:31:16;;;;;;;1.67;0.90;;;9.90;99.90;;;;;;5062376;28;19952;-62
2020/12/23 04:33:41;;;;;;;;;;;9.90;99.90;;;;;;5048208;28;20049;-64
2020/12/23 04:36:07;;;;;;;2.42;1.20;;;9.90;99.90;;;;;;5048398;28;19921;-63
2020/12/23 04:38:32;;;;;;;;;;;9.90;99.90;;;;;;5047809;28;20060;-63
2020/12/23 04:40:58;;;;;;;2.78;1.10;;;9.90;99.90;;;;;;5048129;28;19924;-62
2020/12/23 04:43:24;;;;;;;;;;;9.90;99.90;;;;;;5047847;28;20033;-62
2020/12/23 04:45:50;;;;;;;3.83;0.93;;;9.80;99.90;;;;;;5061120;28;20410;-62
2020/12/23 04:48:24;;;;;;;6.55;1.75;;;9.80;99.90;;;;;;5067317;28;20033;-62
2020/12/23 04:50:55;;;;;;;3.40;1.30;;;9.90;99.90;;;;;;5065052;28;20152;-63
2020/12/23 04:53:21;;;;;;;1.52;1.08;;;9.80;99.90;;;;;;5056917;28;20072;-62
2020/12/23 04:55:47;;;;;;;;;;;9.80;99.90;;;;;;5068346;28;20043;-63
2020/12/23 04:58:13;;;;;;;2.90;1.08;;;9.80;99.90;;;;;;5067799;28;19916;-63
2020/12/23 05:00:38;;;;;;;;;;;9.80;99.90;;;;;;5066697;28;20044;-64
2020/12/23 05:03:04;;;;;;;4.93;1.25;;;9.80;99.90;;;;;;5067118;28;20007;-63
2020/12/23 05:05:29;;;;;;;;;;;9.90;99.90;;;;;;5068384;28;20033;-63
2020/12/23 05:07:55;;;;;;;2.65;1.60;;;9.90;99.90;;;;;;5067007;28;19920;-62
2020/12/23 05:10:21;;;;;;;;;;;9.90;99.90;;;;;;5068013;28;20036;-62
2020/12/23 05:12:47;;;;;;;3.53;1.67;;;9.90;99.90;;;;;;5066289;28;20015;-62
2020/12/23 05:15:12;;;;;;;;;;;9.80;99.90;;;;;;5066279;28;20040;-62
2020/12/23 05:17:44;;;;;;;4.22;2.15;;;9.90;99.90;;;;;;5046801;28;19920;-61
2020/12/23 05:20:10;;;;;;;7.55;2.13;;;9.90;99.90;;;;;;5047147;28;20037;-62
2020/12/23 05:22:36;;;;;;;;;;;9.90;99.90;;;;;;5046190;28;20723;-62
2020/12/23 05:25:02;;;;;;;3.72;2.10;;;9.90;99.90;;;;;;5047097;28;19921;-62
2020/12/23 05:27:31;;;;;;;;;;;9.80;99.90;;;;;;5047170;28;20055;-62
2020/12/23 05:29:56;;;;;;;4.15;2.10;;;9.90;99.90;;;;;;5047724;28;19928;-62
2020/12/23 05:32:22;;;;;;;;;;;9.90;99.90;;;;;;5063686;28;20504;-62
2020/12/23 05:34:51;;;;;;;4.20;2.10;;;9.90;99.90;;;;;;5067163;28;19922;-62
2020/12/23 05:37:20;;;;;;;3.08;2.38;;;9.90;99.90;;;;;;5067295;28;20094;-62
2020/12/23 05:39:47;;;;;;;2.65;1.83;;;9.90;99.90;;;;;;5067787;28;20090;-62
2020/12/23 05:42:14;;;;;;;6.25;2.10;;;9.80;99.90;;;;;;5065384;28;20116;-62
2020/12/23 05:44:40;;;;;;;3.95;2.50;;;9.80;99.90;;;;;;5067573;28;20048;-62
2020/12/23 05:47:05;;;;;;;;;;;9.80;99.90;;;;;;5067174;28;20105;-61
2020/12/23 05:49:37;;;;;;;3.15;1.90;;;9.80;99.90;;;;;;5081338;28;19938;-62
2020/12/23 05:52:04;;;;;;;2.70;1.63;;;9.80;99.90;;;;;;5061009;28;20052;-62
2020/12/23 05:54:30;;;;;;;2.00;1.45;;;9.80;99.90;;;;;;5046256;28;20068;-62
2020/12/23 05:56:56;;;;;;;4.07;1.60;;;9.80;99.90;;;;;;5046929;28;20049;-61
2020/12/23 05:59:21;;;;;;;;;;;9.80;99.90;;;;;;5048651;28;20550;-62
2020/12/23 06:01:49;;;;;;;2.30;1.50;;;9.80;99.90;;;;;;5052352;28;19931;-61
2020/12/23 06:04:15;;;;;;;1.42;1.17;;;9.80;99.90;;;;;;5046495;28;20080;-63
2020/12/23 06:06:44;;;;;;;1.75;1.23;;;9.80;99.90;;;;;;5046162;28;20044;-63
2020/12/23 06:09:11;;;;;;;1.20;1.05;;;9.70;99.90;;;;;;5046206;28;20033;-64
2020/12/23 06:11:44;;;;;;;1.73;1.15;;;9.80;99.90;;;;;;5046437;28;20106;-62
2020/12/23 06:14:25;;;;;;;1.10;0.80;;;9.80;99.90;;;;;;5046239;28;20480;-62
2020/12/23 06:17:04;;;;;;;1.58;0.90;;;9.80;99.90;;;;;;5046256;28;20045;-63
2020/12/23 06:19:36;;;;;;;2.42;1.00;;;9.80;99.90;;;;;;5046833;28;20431;-62
2020/12/23 06:22:06;;;;;;;3.38;0.90;;;9.80;99.90;;;;;;5045638;28;20064;-62
2020/12/23 06:24:32;;;;;;;2.65;0.65;;;9.80;99.90;;;;;;5041562;28;20057;-62
2020/12/23 06:26:59;;;;;;;2.13;0.65;;;9.80;99.90;;;;;;5026308;28;20076;-63
2020/12/23 06:29:30;;;;;;;1.35;0.47;;;9.80;99.90;;;;;;5043569;28;20039;-65
2020/12/23 06:31:59;;;;;;;4.28;0.80;;;9.80;99.90;;;;;;5060191;28;20453;-62
2020/12/23 06:34:27;;;;;;;1.65;0.50;;;9.80;99.90;;;;;;5065991;28;20053;-62
2020/12/23 06:36:54;;;;;;;2.88;0.50;;;9.80;99.90;;;;;;5065662;28;20040;-63
2020/12/23 06:39:37;;;;;;;1.02;0.40;;;9.80;99.90;;;;;;5064686;28;20040;-63
2020/12/23 06:42:03;;;;;;;1.27;0.43;;;9.80;99.90;;;;;;5045211;28;20139;-62
2020/12/23 06:44:44;;;;;;;;;;;9.80;99.90;;;;;;5058454;28;20643;-63
2020/12/23 06:47:19;;;;;;;5.57;0.40;;;9.80;99.90;;;;;;5055836;28;19920;-63
2020/12/23 06:50:23;;;;;;;0.40;0.40;;;9.80;99.90;;;;;;5045080;28;20045;-64
2020/12/23 06:52:49;;;;;;;0.50;0.40;;;9.80;99.90;;;;;;5046029;28;20586;-64
2020/12/23 06:55:15;;;;;;;;;;;9.70;99.90;;;;;;5045268;28;20045;-62
2020/12/23 06:57:43;;;;;;;1.17;0.35;;;9.80;99.90;;;;;;5045505;28;19927;-64
2020/12/23 07:00:23;;;;;;;2.50;0.65;;;9.70;99.90;;;;;;5044728;28;20041;-66
2020/12/23 07:02:56;;;;;;;0.75;0.45;;;9.70;99.90;;;;;;5047924;28;20041;-63
2020/12/23 07:05:21;;;;;;;1.45;0.40;;;9.70;99.90;;;;;;5048355;28;20049;-65
2020/12/23 07:07:54;;;;;;;;;;;9.70;99.90;;;;;;5046563;28;20175;-64
2020/12/23 07:10:28;;;;;;;3.13;0.25;;;9.70;99.90;;;;;;5068329;28;19966;-64
2020/12/23 07:12:58;;;;;;;1.63;0.20;;;9.70;99.90;;;;;;5068555;28;20051;-62
2020/12/23 07:15:35;;;;;;;2.38;0.30;;;9.70;99.90;;;;;;5042704;28;20041;-66
2020/12/23 07:18:12;;;;;;;0.30;0.20;;;9.80;99.90;;;;;;5066307;28;20067;-63
2020/12/23 07:20:48;;;;;;;2.47;0.30;;;9.80;99.90;;;;;;5045300;28;20460;-62
2020/12/23 07:23:16;;;;;;;2.03;0.95;;;9.80;99.90;;;;;;5046640;28;20094;-65
2020/12/23 07:25:56;;;;;;;2.40;0.57;;;9.80;99.90;;;;;;5063090;28;20039;-64
2020/12/23 07:28:42;;;;;;;5.72;0.40;;;9.80;99.90;;;;;;5064506;28;20049;-63
2020/12/23 07:31:10;;;;;;;2.25;0.30;;;9.80;99.90;;;;;;5049264;28;20033;-62
2020/12/23 07:33:40;;;;;;;0.95;0.20;;;9.80;99.90;;;;;;5053389;28;20684;-63
2020/12/23 07:36:26;;;;;;;2.13;0.13;;;9.70;99.90;;;;;;5053265;28;20036;-64
2020/12/23 07:38:54;;;;;;;1.08;0.28;;;9.80;99.90;;;;;;5069015;28;20591;-64
2020/12/23 07:41:20;;;;;;;0.82;0.10;;;9.80;99.90;;;;;;5052187;28;20045;-64
2020/12/23 07:43:53;;;;;;;;;;;9.80;99.90;;;;;;5057461;28;20526;-63
2020/12/23 07:46:23;;;;;;;0.10;0.10;;;9.90;99.90;;;;;;5062108;28;20054;-63
2020/12/23 07:48:49;;;;;;;0.50;0.20;;;9.90;99.90;;;;;;5061332;28;20127;-63
2020/12/23 07:51:39;;;;;;;0.35;0.13;;;9.80;99.90;;;;;;5073911;28;20055;-65
2020/12/23 07:54:10;;;;;;;3.70;0.20;;;9.90;99.90;;;;;;5069637;28;20317;-67
2020/12/23 07:56:39;;;;;;;1.45;0.20;;;9.90;99.90;;;;;;5057263;28;20072;-64
2020/12/23 07:59:10;;;;;;;2.38;0.20;;;9.90;99.90;;;;;;5052094;28;20130;-66
2020/12/23 08:01:36;;;;;;;0.32;0.28;;;9.90;99.90;;;;;;5047560;28;20044;-65
2020/12/23 08:04:11;;;;;;;3.92;0.32;;;9.90;99.90;;;;;;5050675;28;20772;-63
2020/12/23 08:06:37;;;;;;;1.23;0.40;;;9.90;99.90;;;;;;5061199;28;20045;-62
2020/12/23 08:09:11;;;;;;;;;;;10.00;99.90;;;;;;5061469;28;20037;-63
2020/12/23 08:11:38;;;;;;;0.20;0.20;;;9.90;99.90;;;;;;5081586;28;19923;-64
2020/12/23 08:14:04;;;;;;;1.30;0.30;;;10.00;99.90;;;;;;5059495;28;20041;-62
2020/12/23 08:16:29;;;;;;;;;;;10.00;99.90;;;;;;5068189;28;20690;-64
2020/12/23 08:18:58;;;;;;;1.63;0.32;;;10.00;99.90;;;;;;5071911;28;19924;-65
2020/12/23 08:21:26;;;;;;;1.08;0.30;;;9.90;99.90;;;;;;5069978;28;20095;-64
2020/12/23 08:23:52;;;;;;;0.50;0.20;;;9.90;99.90;;;;;;5071510;28;20052;-64
2020/12/23 08:26:19;;;;;;;0.10;0.10;;;10.00;99.90;;;;;;5067836;28;20040;-64
2020/12/23 08:28:47;;;;;;;1.17;0.28;;;10.00;99.90;;;;;;5067655;28;20040;-62
2020/12/23 08:31:24;;;;;;;0.32;0.13;;;10.10;99.90;;;;;;5068205;28;20463;-63
2020/12/23 08:33:52;;;;;;;0.10;0.10;;;10.10;99.90;;;;;;5069993;28;20554;-62
2020/12/23 08:36:21;;;;;;;0.32;0.22;;;10.10;99.90;;;;;;5050901;28;20059;-64
2020/12/23 08:38:49;;;;;;;0.90;0.30;;;10.10;99.90;;;;;;5069938;28;20865;-65
2020/12/23 08:41:18;;;;;;;0.20;0.20;;;10.10;99.90;;;;;;5067589;28;20123;-65
2020/12/23 08:43:48;;;;;;;0.20;0.20;;;10.20;99.90;;;;;;5071997;28;20055;-65
2020/12/23 08:46:30;;;;;;;0.28;0.10;;;10.20;99.90;;;;;;5088474;28;20032;-64
2020/12/23 08:49:00;;;;;;;0.55;0.20;;;10.20;99.90;;;;;;5063592;28;20117;-63
2020/12/23 08:51:31;;;;;;;0.45;0.20;;;10.20;99.90;;;;;;5060155;28;20189;-64
2020/12/23 08:54:11;;;;;;;0.50;0.13;;;10.30;99.90;;;;;;5027328;28;20045;-62
2020/12/23 08:56:53;;;;;;;0.75;0.20;;;10.30;99.90;;;;;;5029543;28;20172;-65
2020/12/23 08:59:21;;;;;;;1.55;0.28;;;10.30;99.90;;;;;;5042009;28;20082;-66
2020/12/23 09:02:09;;;;;;;0.22;0.20;;;10.30;99.90;;;;;;5052127;28;20775;-64
2020/12/23 09:05:17;;;;;;;0.47;0.28;;;10.30;99.90;;;;;;5052005;28;20055;-65
2020/12/23 09:08:02;;;;;;;;;;;10.20;99.90;;;;;;5017056;28;20097;-64
2020/12/23 09:10:32;;;;;;;4.75;2.65;;;10.30;99.90;;;;;;5028205;28;19972;-65
2020/12/23 09:13:17;;;;;;;0.82;0.63;;;10.40;99.90;;;;;;5029145;28;20065;-65
2020/12/23 09:15:53;;;;;;;2.22;0.50;;;10.40;99.90;;;;;;5045621;28;20060;-62
2020/12/23 09:18:19;;;;;;;0.68;0.20;;;10.40;99.90;;;;;;5050414;28;20036;-64
2020/12/23 09:21:01;;;;;;;;;;;10.30;99.90;;;;;;5070489;28;20046;-66
2020/12/23 09:23:27;;;;;;;22.27;16.27;;;10.30;99.90;;;;;;5069450;28;20015;-65
2020/12/23 09:25:53;;;;;;;;;;;10.30;99.90;;;;;;5069170;28;20124;-64
2020/12/23 09:28:20;;;;;;;8.48;4.85;;;10.40;99.90;;;;;;5055641;28;19921;-63
2020/12/23 09:30:51;;;;;;;6.35;2.58;;;10.40;99.90;;;;;;5026797;28;20046;-64
2020/12/23 09:33:20;;;;;;;3.72;1.08;;;10.50;99.90;;;;;;5031758;28;20055;-65
2020/12/23 09:36:06;;;;;;;3.33;0.70;;;10.50;99.90;;;;;;5048012;28;20145;-63
2020/12/23 09:38:35;;;;;;;0.40;0.30;;;10.50;99.90;;;;;;5048197;28;20136;-62
2020/12/23 09:41:30;;;;;;;6.03;0.40;;;10.50;99.90;;;;;;5049431;28;20045;-63
2020/12/23 09:43:55;;;;;;;0.55;0.20;;;10.60;99.90;;;;;;5035702;28;20049;-64
2020/12/23 09:46:21;;;;;;;;;;;10.60;99.90;;;;;;5045560;28;20606;-65
2020/12/23 09:48:46;;;;;;;2.72;0.32;;;10.60;99.90;;;;;;5046735;28;19970;-65
2020/12/23 09:51:12;;;;;;;;;;;10.60;99.90;;;;;;5047968;28;20040;-62
2020/12/23 09:53:38;;;;;;;15.35;10.52;;;10.60;99.90;;;;;;5050691;28;19917;-64
2020/12/23 09:56:05;;;;;;;28.05;17.38;;;10.60;99.90;;;;;;5068022;28;20086;-64
2020/12/23 09:58:33;;;;;;;5.20;2.88;;;10.60;99.90;;;;;;5062203;28;20037;-63
2020/12/23 10:00:59;;;;;;;5.15;1.50;;;10.60;99.90;;;;;;5046093;28;20060;-62
2020/12/23 10:06:49;;;;;;;10.48;6.03;;;10.70;99.90;;;;;;5024617;28;20393;-68
2020/12/23 10:09:15;;;;;;;;;;;10.80;99.90;;;;;;5027984;28;20418;-67
2020/12/23 10:11:41;;;;;;;4.90;1.77;;;10.70;99.90;;;;;;5044648;28;19916;-64
2020/12/23 10:14:06;;;;;;;;;;;10.90;99.90;;;;;;5057381;28;20103;-64
2020/12/23 10:16:33;;;;;;;5.30;2.28;;;10.90;99.90;;;;;;5025750;28;19921;-63
2020/12/23 10:19:02;;;;;;;1.30;0.70;;;10.80;99.90;;;;;;5046671;28;20120;-67
2020/12/23 10:21:28;;;;;;;7.63;0.40;;;10.90;99.90;;;;;;5044793;28;20538;-63
2020/12/23 10:24:06;;;;;;;;;;;10.90;99.90;;;;;;5041960;28;20045;-64
2020/12/23 10:26:39;;;;;;;1.08;0.52;;;10.90;99.90;;;;;;5025956;28;19921;-64
2020/12/23 10:29:05;;;;;;;2.45;1.30;;;10.90;99.90;;;;;;5023959;28;20053;-62
2020/12/23 10:31:43;;;;;;;;;;;10.90;99.90;;;;;;5046420;28;20040;-65
2020/12/23 10:34:09;;;;;;;2.10;1.70;;;11.00;99.90;;;;;;5061041;28;20418;-65
2020/12/23 10:36:35;;;;;;;3.50;0.90;;;11.00;99.90;;;;;;5066050;28;20532;-63
2020/12/23 10:42:03;;;;;;;0.60;0.32;;;11.20;99.90;;;;;;4956860;28;19926;-61
2020/12/23 10:44:29;;;;;;;;;;;11.30;99.90;;;;;;4969909;28;20127;-61
2020/12/23 10:46:59;;;;;;;1.20;0.45;;;11.30;99.90;;;;;;4946590;28;20362;-62
2020/12/23 10:49:25;;;;;;;1.30;0.50;;;11.40;99.90;;;;;;4934810;28;20039;-62
2020/12/23 10:51:53;;;;;;;0.88;0.30;;;11.40;99.90;;;;;;4927086;29;20043;-62
2020/12/23 10:54:19;;;;;;;0.63;0.30;;;11.40;99.90;;;;;;4940523;28;20118;-62
2020/12/23 10:56:44;;;;;;;;;;;11.40;99.90;;;;;;4945741;29;20067;-63
2020/12/23 10:59:10;;;;;;;4.75;3.03;;;11.50;99.90;;;;;;4944873;28;20024;-63
2020/12/23 11:01:36;;;;;;;;;;;11.50;99.90;;;;;;4957733;28;20042;-63
2020/12/23 11:04:02;;;;;;;4.03;1.35;;;11.50;99.90;;;;;;4957338;28;20535;-63
2020/12/23 11:06:27;;;;;;;;;;;11.60;99.90;;;;;;4945927;28;20054;-63
2020/12/23 11:08:53;;;;;;;0.98;0.65;;;11.60;99.90;;;;;;4945468;28;19918;-63
2020/12/23 11:11:20;;;;;;;;;;;11.60;99.90;;;;;;4944129;28;20046;-63
2020/12/23 11:13:45;;;;;;;5.35;3.20;;;11.70;99.90;;;;;;4945400;28;20394;-63
2020/12/23 11:16:17;;;;;;;;;;;11.70;99.90;;;;;;4944421;28;20043;-63
2020/12/23 11:18:45;;;;;;;1.90;1.38;;;11.70;99.90;;;;;;4944542;28;20697;-63
2020/12/23 11:21:11;;;;;;;9.13;5.53;;;11.70;99.90;;;;;;4945047;28;20043;-63
2020/12/23 11:23:37;;;;;;;1.40;1.00;;;11.70;99.90;;;;;;4945733;28;20711;-63
2020/12/23 11:26:03;;;;;;;;;;;11.70;99.90;;;;;;4936395;28;20071;-63
2020/12/23 11:28:31;;;;;;;4.38;2.85;;;11.70;99.90;;;;;;4941762;28;20017;-63
2020/12/23 11:30:59;;;;;;;3.13;0.98;;;11.70;99.90;;;;;;4944670;28;20949;-64
2020/12/23 11:33:27;;;;;;;0.57;0.47;;;11.70;99.90;;;;;;4946206;28;20766;-63
2020/12/23 11:35:52;;;;;;;0.47;0.30;;;11.70;99.90;;;;;;4937482;28;20047;-63
2020/12/23 11:38:18;;;;;;;;;;;11.80;99.90;;;;;;4954930;28;20054;-63
2020/12/23 11:40:43;;;;;;;0.43;0.30;;;11.80;99.90;;;;;;4955540;28;19954;-63
2020/12/23 11:43:09;;;;;;;;;;;11.70;99.90;;;;;;4943460;28;20216;-63
2020/12/23 11:45:34;;;;;;;0.52;0.30;;;11.70;99.90;;;;;;4944534;28;20043;-63
2020/12/23 11:48:00;;;;;;;;;;;11.70;99.90;;;;;;4945353;28;20514;-65
2020/12/23 11:50:26;;;;;;;2.60;0.50;;;11.70;99.90;;;;;;4943826;28;19969;-63
2020/12/23 11:52:51;;;;;;;;;;;11.70;99.90;;;;;;4943938;28;20039;-64
2020/12/23 11:55:18;;;;;;;0.47;0.32;;;11.70;99.90;;;;;;4943130;28;20058;-64
2020/12/23 11:57:45;;;;;;;4.03;0.40;;;11.60;99.90;;;;;;4945564;28;20050;-63
2020/12/23 12:00:11;;;;;;;0.70;0.40;;;11.60;99.90;;;;;;4962336;28;20063;-63
2020/12/23 12:02:37;;;;;;;;;;;11.60;99.90;;;;;;4962943;28;20051;-64
2020/12/23 12:05:03;;;;;;;3.43;0.50;;;11.50;99.90;;;;;;4963513;28;19961;-63
2020/12/23 12:07:29;;;;;;;0.70;0.30;;;11.40;99.90;;;;;;4950880;28;20290;-61
2020/12/23 12:09:55;;;;;;;;;;;11.30;99.90;;;;;;4948844;28;20050;-62
2020/12/23 12:12:20;;;;;;;35.90;25.02;;;11.30;99.90;;;;;;4948171;28;19918;-63
2020/12/23 12:14:46;;;;;;;;;;;11.30;99.90;;;;;;4949659;28;20086;-64
2020/12/23 12:17:12;;;;;;;5.32;2.80;;;11.30;99.90;;;;;;4946839;28;19922;-64
2020/12/23 12:19:37;;;;;;;;;;;11.30;99.90;;;;;;4948798;28;20565;-63
2020/12/23 12:22:03;;;;;;;5.38;0.80;;;11.30;99.90;;;;;;4946416;28;20012;-63
2020/12/23 12:24:28;;;;;;;;;;;11.20;99.90;;;;;;4948447;28;20046;-62
2020/12/23 12:29:22;;;;;;;5.30;0.50;;;11.20;99.90;;;;;;5021593;23;20058;-65
2020/12/23 12:31:47;;;;;;;;;;;11.20;99.90;;;;;;5015417;23;20413;-65
2020/12/23 12:34:13;;;;;;;8.38;2.63;;;11.20;99.90;;;;;;5013907;28;20007;-63
2020/12/23 12:36:38;;;;;;;;;;;11.20;99.90;;;;;;5012401;28;20038;-65
2020/12/23 12:39:04;;;;;;;3.35;1.13;;;11.20;99.90;;;;;;5005974;28;19921;-64
2020/12/23 12:41:29;;;;;;;;;;;11.20;99.90;;;;;;4998595;28;20052;-69
2020/12/23 12:43:56;;;;;;;7.43;1.65;;;11.20;99.90;;;;;;4998790;28;19921;-63
2020/12/23 12:46:23;;;;;;;0.60;0.30;;;11.20;99.90;;;;;;4996264;28;20104;-64
2020/12/23 12:48:49;;;;;;;2.72;0.35;;;11.10;99.90;;;;;;5008823;28;20080;-64
2020/12/23 12:51:14;;;;;;;;;;;11.10;99.90;;;;;;5025516;28;20041;-64
2020/12/23 12:53:40;;;;;;;0.45;0.40;;;11.10;99.90;;;;;;5009611;28;19932;-64
2020/12/23 12:56:05;;;;;;;;;;;11.20;99.90;;;;;;5006799;28;20042;-64
2020/12/23 12:58:32;;;;;;;2.97;0.70;;;11.10;99.90;;;;;;5009482;28;19927;-64
2020/12/23 13:00:58;;;;;;;0.45;0.35;;;11.10;99.90;;;;;;5000483;28;20031;-64
2020/12/23 13:03:23;;;;;;;;;;;11.10;99.90;;;;;;4989794;28;20107;-65
2020/12/23 13:05:51;;;;;;;0.50;0.40;;;11.10;99.90;;;;;;5001661;28;19928;-64
2020/12/23 13:08:18;;;;;;;3.40;0.50;;;10.90;99.90;;;;;;4993518;28;20042;-62
2020/12/23 13:10:44;;;;;;;2.30;0.52;;;11.00;99.90;;;;;;5005512;28;20442;-63
2020/12/23 13:13:10;;;;;;;;;;;11.00;99.90;;;;;;5006286;28;20513;-62
2020/12/23 13:15:35;;;;;;;3.70;1.90;;;11.00;99.90;;;;;;5009469;28;20533;-67
2020/12/23 13:18:01;;;;;;;;;;;11.00;99.90;;;;;;5032632;28;20041;-64
2020/12/23 13:20:27;;;;;;;2.60;0.55;;;10.90;99.90;;;;;;5026237;28;20053;-66
2020/12/23 13:22:52;;;;;;;;;;;10.90;99.90;;;;;;5024611;28;20128;-64
2020/12/23 13:25:18;;;;;;;1.42;0.63;;;10.80;99.90;;;;;;5025343;28;20011;-65
2020/12/23 13:27:43;;;;;;;;;;;10.70;99.90;;;;;;5025722;28;20068;-64
2020/12/23 13:30:09;;;;;;;2.00;0.60;;;10.80;99.90;;;;;;5026757;28;20005;-64